createdAt,value
2019-05-30T00:01:41.646Z,12.76
2019-05-30T00:04:12.139Z,12.61
2019-05-30T00:06:41.675Z,12.48
2019-05-30T00:09:12.490Z,12.37
2019-05-30T00:11:42.937Z,12.24
2019-05-30T00:14:14.413Z,12.19
2019-05-30T00:16:43.742Z,12.10
2019-05-30T00:19:14.100Z,12.08
2019-05-30T00:21:43.922Z,12.04
2019-05-30T00:24:14.298Z,12.03
2019-05-30T00:26:45.164Z,11.99
2019-05-30T00:29:17.397Z,11.91
2019-05-30T00:31:48.119Z,11.80
2019-05-30T00:34:20.017Z,11.75
2019-05-30T00:36:50.611Z,11.71
2019-05-30T00:39:22.061Z,11.63
2019-05-30T00:41:52.763Z,11.55
2019-05-30T00:44:23.070Z,11.45
2019-05-30T00:46:53.377Z,11.41
2019-05-30T00:49:23.771Z,11.37
2019-05-30T00:51:54.596Z,11.28
2019-05-30T00:54:26.285Z,11.24
2019-05-30T00:56:58.677Z,11.20
2019-05-30T00:59:28.047Z,11.15
2019-05-30T01:01:58.624Z,11.11
2019-05-30T01:04:28.044Z,11.05
2019-05-30T01:06:58.835Z,10.98
2019-05-30T01:09:28.829Z,10.92
2019-05-30T01:11:59.154Z,10.85
2019-05-30T01:14:28.569Z,10.84
2019-05-30T01:16:59.089Z,10.81
2019-05-30T01:19:27.842Z,10.72
2019-05-30T01:21:59.146Z,10.69
2019-05-30T01:24:28.668Z,10.69
2019-05-30T01:26:59.279Z,10.69
2019-05-30T01:29:29.947Z,10.57
2019-05-30T01:32:01.457Z,10.57
2019-05-30T01:34:31.008Z,10.51
2019-05-30T01:37:01.512Z,10.47
2019-05-30T01:39:30.980Z,10.43
2019-05-30T01:42:01.812Z,10.38
2019-05-30T01:44:32.398Z,10.36
2019-05-30T01:47:02.039Z,10.34
2019-05-30T01:49:32.671Z,10.34
2019-05-30T01:52:03.080Z,10.34
2019-05-30T01:54:32.513Z,10.33
2019-05-30T01:57:02.855Z,10.27
2019-05-30T01:59:32.320Z,10.27
2019-05-30T02:02:05.106Z,10.24
2019-05-30T02:04:35.525Z,10.23
2019-05-30T02:07:07.422Z,10.17
2019-05-30T02:09:37.877Z,10.15
2019-05-30T02:12:09.702Z,10.15
2019-05-30T02:14:40.069Z,10.12
2019-05-30T02:17:10.939Z,10.11
2019-05-30T02:19:41.294Z,10.08
2019-05-30T02:22:11.127Z,10.10
2019-05-30T02:24:41.691Z,10.12
2019-05-30T02:27:12.414Z,10.06
2019-05-30T02:29:42.802Z,10.05
2019-05-30T02:32:15.057Z,9.97
2019-05-30T02:34:45.503Z,9.94
2019-05-30T02:37:15.804Z,9.95
2019-05-30T02:39:45.600Z,9.86
2019-05-30T02:42:15.943Z,9.86
2019-05-30T02:44:45.368Z,9.82
2019-05-30T02:47:14.863Z,9.81
2019-05-30T02:49:46.861Z,9.74
2019-05-30T02:52:16.256Z,9.72
2019-05-30T02:54:47.119Z,9.73
2019-05-30T02:57:15.917Z,9.69
2019-05-30T02:59:46.454Z,9.69
2019-05-30T03:02:17.877Z,9.65
2019-05-30T03:04:47.496Z,9.62
2019-05-30T03:07:16.827Z,9.61
2019-05-30T03:09:46.535Z,9.54
2019-05-30T03:12:21.272Z,9.55
2019-05-30T03:14:53.429Z,9.53
2019-05-30T03:17:23.704Z,9.53
2019-05-30T03:19:54.273Z,9.52
2019-05-30T03:22:22.839Z,9.52
2019-05-30T03:24:51.669Z,9.57
2019-05-30T03:27:20.153Z,9.61
2019-05-30T03:29:48.615Z,9.61
2019-05-30T03:33:00.875Z,9.59
2019-05-30T03:34:48.251Z,9.66
2019-05-30T03:37:27.852Z,9.67
2019-05-30T03:39:49.995Z,9.68
2019-05-30T03:42:18.805Z,9.75
2019-05-30T03:44:48.094Z,9.86
2019-05-30T03:47:20.424Z,9.98
2019-05-30T03:49:52.875Z,10.17
2019-05-30T03:52:25.510Z,11.08
2019-05-30T03:54:55.257Z,12.40
2019-05-30T03:57:28.577Z,13.65
2019-05-30T04:00:09.432Z,14.33
2019-05-30T04:02:55.899Z,14.71
2019-05-30T04:05:19.473Z,15.31
2019-05-30T04:07:52.757Z,15.76
2019-05-30T04:10:26.299Z,16.68
2019-05-30T04:13:15.255Z,17.23
2019-05-30T04:15:45.806Z,16.78
2019-05-30T04:18:16.608Z,14.97
2019-05-30T04:20:48.396Z,15.57
2019-05-30T04:23:19.465Z,15.22
2019-05-30T04:25:50.035Z,14.34
2019-05-30T04:28:21.841Z,13.50
2019-05-30T04:30:52.211Z,12.74
2019-05-30T04:33:32.339Z,12.37
2019-05-30T04:35:55.734Z,13.90
2019-05-30T04:38:26.362Z,14.72
2019-05-30T04:40:56.759Z,14.20
2019-05-30T04:43:30.812Z,13.34
2019-05-30T04:46:01.124Z,16.47
2019-05-30T04:48:30.413Z,19.99
2019-05-30T04:50:59.771Z,21.73
2019-05-30T04:53:30.244Z,23.30
2019-05-30T04:56:00.915Z,24.17
2019-05-30T04:58:30.230Z,24.96
2019-05-30T05:01:02.192Z,26.23
2019-05-30T05:03:45.073Z,26.41
2019-05-30T05:06:06.358Z,27.90
2019-05-30T05:08:37.832Z,28.55
2019-05-30T05:11:07.167Z,29.78
2019-05-30T05:13:37.559Z,30.78
2019-05-30T05:16:21.927Z,30.94
2019-05-30T05:18:39.245Z,31.67
2019-05-30T05:21:07.721Z,31.52
2019-05-30T05:23:39.388Z,32.13
2019-05-30T05:26:08.706Z,33.38
2019-05-30T05:28:41.809Z,34.18
2019-05-30T05:31:12.181Z,33.89
2019-05-30T05:33:55.801Z,35.30
2019-05-30T05:36:12.613Z,35.51
2019-05-30T05:38:42.151Z,35.68
2019-05-30T05:41:11.451Z,36.01
2019-05-30T05:43:41.813Z,36.46
2019-05-30T05:46:12.311Z,36.42
2019-05-30T05:48:42.722Z,37.61
2019-05-30T05:51:13.327Z,36.80
2019-05-30T05:53:43.733Z,37.72
2019-05-30T05:56:13.107Z,38.60
2019-05-30T05:58:43.622Z,38.67
2019-05-30T06:01:15.164Z,39.06
2019-05-30T06:03:46.202Z,39.58
2019-05-30T06:06:17.265Z,39.13
2019-05-30T06:08:47.116Z,39.15
2019-05-30T06:11:18.660Z,41.24
2019-05-30T06:13:49.907Z,41.69
2019-05-30T06:16:19.878Z,41.83
2019-05-30T06:18:50.988Z,44.38
2019-05-30T06:21:21.431Z,43.90
2019-05-30T06:23:51.839Z,43.70
2019-05-30T06:26:22.482Z,42.76
2019-05-30T06:28:52.980Z,43.68
2019-05-30T06:31:22.501Z,43.73
2019-05-30T06:33:52.329Z,43.91
2019-05-30T06:36:23.276Z,43.67
2019-05-30T06:38:58.039Z,44.52
2019-05-30T06:41:27.719Z,44.82
2019-05-30T06:43:58.739Z,45.66
2019-05-30T06:46:30.467Z,46.58
2019-05-30T06:49:03.027Z,46.47
2019-05-30T06:51:32.088Z,45.92
2019-05-30T06:54:02.503Z,45.25
2019-05-30T06:56:32.959Z,45.09
2019-05-30T06:59:02.364Z,45.57
2019-05-30T07:01:33.067Z,46.40
2019-05-30T07:04:04.499Z,45.42
2019-05-30T07:06:35.714Z,46.25
2019-05-30T07:09:12.506Z,46.44
2019-05-30T07:11:43.019Z,46.99
2019-05-30T07:14:13.317Z,47.33
2019-05-30T07:16:42.734Z,47.84
2019-05-30T07:19:13.093Z,48.50
2019-05-30T07:21:43.606Z,48.56
2019-05-30T07:24:14.117Z,49.47
2019-05-30T07:26:43.621Z,47.27
2019-05-30T07:29:14.314Z,47.32
2019-05-30T07:31:45.009Z,47.47
2019-05-30T07:34:16.547Z,48.42
2019-05-30T07:36:48.950Z,49.70
2019-05-30T07:39:19.376Z,49.30
2019-05-30T07:42:05.190Z,48.20
2019-05-30T07:44:24.803Z,50.85
2019-05-30T07:46:56.632Z,50.48
2019-05-30T07:49:28.250Z,51.61
2019-05-30T07:51:57.836Z,50.62
2019-05-30T07:54:26.902Z,50.92
2019-05-30T07:56:58.764Z,49.60
2019-05-30T07:59:30.726Z,48.82
2019-05-30T08:02:00.011Z,50.94
2019-05-30T08:04:34.233Z,51.47
2019-05-30T08:07:06.357Z,51.54
2019-05-30T08:09:39.303Z,49.19
2019-05-30T08:12:08.981Z,50.70
2019-05-30T08:14:41.851Z,50.46
2019-05-30T08:17:15.911Z,51.61
2019-05-30T08:19:48.930Z,52.26
2019-05-30T08:22:21.637Z,52.47
2019-05-30T08:24:52.159Z,53.43
2019-05-30T08:27:21.440Z,52.10
2019-05-30T08:29:52.119Z,51.22
2019-05-30T08:32:22.634Z,52.03
2019-05-30T08:34:52.093Z,51.76
2019-05-30T08:37:23.240Z,52.75
2019-05-30T08:39:53.695Z,45.36
2019-05-30T08:42:22.524Z,36.03
2019-05-30T08:44:52.994Z,45.95
2019-05-30T08:47:24.883Z,48.75
2019-05-30T08:49:55.997Z,49.98
2019-05-30T08:52:26.498Z,50.92
2019-05-30T08:54:56.921Z,52.43
2019-05-30T08:57:26.312Z,46.06
2019-05-30T08:59:56.622Z,49.73
2019-05-30T09:02:29.165Z,49.42
2019-05-30T09:04:58.676Z,50.06
2019-05-30T09:07:31.754Z,50.07
2019-05-30T09:10:02.366Z,47.24
2019-05-30T09:12:33.420Z,45.96
2019-05-30T09:15:04.222Z,45.66
2019-05-30T09:17:33.631Z,46.02
2019-05-30T09:20:03.422Z,46.19
2019-05-30T09:22:35.665Z,46.80
2019-05-30T09:25:10.882Z,45.74
2019-05-30T09:27:41.438Z,45.16
2019-05-30T09:30:14.040Z,43.93
2019-05-30T09:32:45.224Z,44.11
2019-05-30T09:35:16.358Z,38.02
2019-05-30T09:37:47.608Z,40.44
2019-05-30T09:40:22.381Z,42.24
2019-05-30T09:42:53.728Z,43.00
2019-05-30T09:45:23.918Z,42.51
2019-05-30T09:47:54.451Z,41.89
2019-05-30T09:50:25.045Z,41.65
2019-05-30T09:52:55.528Z,39.60
2019-05-30T09:55:27.570Z,38.43
2019-05-30T09:57:58.247Z,38.75
2019-05-30T10:00:31.693Z,36.87
2019-05-30T10:03:00.417Z,34.63
2019-05-30T10:05:30.937Z,32.15
2019-05-30T10:08:03.318Z,30.66
2019-05-30T10:10:36.355Z,29.01
2019-05-30T10:13:06.117Z,28.08
2019-05-30T10:15:36.850Z,27.51
2019-05-30T10:18:19.154Z,26.77
2019-05-30T10:21:00.731Z,26.38
2019-05-30T10:23:35.684Z,25.87
2019-05-30T10:26:07.202Z,25.68
2019-05-30T10:28:37.371Z,25.28
2019-05-30T10:31:07.517Z,25.03
2019-05-30T10:33:36.855Z,24.76
2019-05-30T10:36:09.542Z,24.65
2019-05-30T10:38:42.558Z,24.49
2019-05-30T10:41:20.986Z,24.33
2019-05-30T10:43:51.734Z,24.43
2019-05-30T10:46:23.761Z,24.12
2019-05-30T10:48:56.737Z,24.41
2019-05-30T10:51:26.324Z,24.32
2019-05-30T10:53:58.793Z,24.21
2019-05-30T10:56:30.448Z,24.70
2019-05-30T10:59:00.943Z,25.43
2019-05-30T11:01:34.418Z,25.91
2019-05-30T11:04:04.152Z,25.69
2019-05-30T11:07:10.155Z,25.36
2019-05-30T11:09:27.181Z,25.39
2019-05-30T11:11:57.508Z,25.09
2019-05-30T11:14:26.808Z,24.30
2019-05-30T11:16:58.896Z,23.52
2019-05-30T11:19:28.249Z,23.65
2019-05-30T11:21:58.178Z,23.24
2019-05-30T11:24:30.500Z,23.23
2019-05-30T11:27:00.057Z,23.46
2019-05-30T11:29:30.998Z,23.70
2019-05-30T11:32:01.399Z,23.79
2019-05-30T11:34:30.867Z,24.10
2019-05-30T11:37:18.096Z,23.99
2019-05-30T11:39:33.703Z,24.17
2019-05-30T11:42:04.153Z,24.17
2019-05-30T11:44:33.525Z,24.59
2019-05-30T11:47:03.037Z,24.59
2019-05-30T11:49:33.384Z,24.76
2019-05-30T11:52:02.902Z,25.06
2019-05-30T11:54:32.512Z,24.87
2019-05-30T11:57:03.409Z,24.95
2019-05-30T11:59:35.577Z,25.08
2019-05-30T12:02:04.938Z,25.15
2019-05-30T12:04:40.741Z,25.21
2019-05-30T12:07:13.015Z,25.54
2019-05-30T12:09:43.520Z,25.66
2019-05-30T12:12:15.399Z,25.25
2019-05-30T12:14:45.907Z,24.53
2019-05-30T12:17:17.275Z,24.22
2019-05-30T12:19:49.692Z,23.95
2019-05-30T12:22:19.361Z,23.89
2019-05-30T12:24:48.850Z,23.97
2019-05-30T12:27:18.180Z,23.98
2019-05-30T12:29:51.979Z,24.09
2019-05-30T12:32:22.724Z,24.03
2019-05-30T12:34:54.286Z,23.83
2019-05-30T12:37:24.778Z,23.81
2019-05-30T12:39:56.447Z,23.63
2019-05-30T12:42:28.017Z,23.87
2019-05-30T12:44:59.056Z,24.12
2019-05-30T12:47:29.531Z,24.05
2019-05-30T12:49:59.312Z,24.33
2019-05-30T12:52:29.922Z,24.91
2019-05-30T12:55:00.861Z,25.17
2019-05-30T12:57:31.669Z,24.81
2019-05-30T13:00:07.406Z,24.21
2019-05-30T13:02:34.572Z,23.96
2019-05-30T13:05:08.465Z,23.62
2019-05-30T13:07:37.900Z,23.25
2019-05-30T13:10:10.499Z,22.82
2019-05-30T13:12:40.024Z,22.87
2019-05-30T13:15:11.520Z,23.16
2019-05-30T13:17:40.891Z,22.85
2019-05-30T13:20:13.713Z,23.11
2019-05-30T13:22:46.589Z,23.26
2019-05-30T13:25:19.397Z,22.71
2019-05-30T13:27:48.872Z,22.13
2019-05-30T13:30:21.565Z,22.08
2019-05-30T13:32:50.965Z,22.13
2019-05-30T13:35:21.452Z,21.90
2019-05-30T13:37:50.814Z,21.95
2019-05-30T13:40:25.405Z,22.02
2019-05-30T13:42:55.908Z,21.93
2019-05-30T13:45:27.665Z,21.64
2019-05-30T13:47:58.597Z,21.46
2019-05-30T13:50:29.530Z,21.46
2019-05-30T13:53:02.979Z,21.61
2019-05-30T13:55:33.455Z,21.88
2019-05-30T13:58:04.174Z,21.70
2019-05-30T14:00:36.472Z,22.21
2019-05-30T14:03:06.821Z,22.50
2019-05-30T14:05:39.480Z,22.46
2019-05-30T14:08:15.918Z,22.38
2019-05-30T14:10:40.946Z,22.38
2019-05-30T14:13:11.420Z,22.48
2019-05-30T14:15:40.815Z,22.87
2019-05-30T14:18:14.254Z,22.99
2019-05-30T14:20:45.595Z,22.65
2019-05-30T14:23:17.753Z,22.73
2019-05-30T14:25:48.243Z,22.72
2019-05-30T14:28:18.753Z,22.75
2019-05-30T14:30:49.283Z,22.70
2019-05-30T14:33:22.282Z,22.93
2019-05-30T14:35:54.481Z,23.53
2019-05-30T14:38:26.460Z,23.93
2019-05-30T14:40:57.368Z,24.13
2019-05-30T14:43:27.768Z,24.07
2019-05-30T14:46:01.829Z,24.01
2019-05-30T14:48:32.338Z,23.95
2019-05-30T14:51:01.875Z,23.91
2019-05-30T14:53:31.210Z,24.09
2019-05-30T14:56:00.519Z,23.87
2019-05-30T14:58:31.417Z,23.68
2019-05-30T15:01:04.966Z,23.29
2019-05-30T15:03:39.162Z,22.84
2019-05-30T15:06:12.889Z,22.54
2019-05-30T15:08:42.736Z,22.53
2019-05-30T15:11:13.780Z,22.50
2019-05-30T15:13:44.460Z,22.41
2019-05-30T15:16:17.231Z,22.48
2019-05-30T15:18:46.946Z,22.43
2019-05-30T15:21:18.788Z,22.65
2019-05-30T15:23:52.539Z,22.68
2019-05-30T15:26:22.941Z,22.56
2019-05-30T15:28:53.363Z,22.51
2019-05-30T15:31:23.665Z,22.32
2019-05-30T15:33:53.394Z,22.18
2019-05-30T15:36:21.857Z,22.52
2019-05-30T15:38:50.789Z,22.66
2019-05-30T15:41:20.368Z,22.58
2019-05-30T15:43:51.630Z,22.34
2019-05-30T15:46:24.097Z,22.30
2019-05-30T15:48:54.505Z,22.58
2019-05-30T15:51:25.225Z,22.61
2019-05-30T15:53:54.727Z,22.59
2019-05-30T15:56:25.200Z,22.59
2019-05-30T15:58:56.231Z,22.43
2019-05-30T16:01:25.594Z,22.24
2019-05-30T16:03:56.829Z,22.05
2019-05-30T16:06:29.101Z,21.84
2019-05-30T16:09:01.683Z,21.67
2019-05-30T16:11:32.224Z,21.56
2019-05-30T16:14:01.177Z,21.50
2019-05-30T16:16:39.307Z,21.34
2019-05-30T16:19:17.286Z,21.23
2019-05-30T16:21:41.792Z,21.18
2019-05-30T16:24:14.537Z,21.08
2019-05-30T16:26:43.999Z,21.07
2019-05-30T16:29:13.690Z,21.01
2019-05-30T16:31:44.351Z,20.99
2019-05-30T16:34:13.978Z,20.97
2019-05-30T16:36:47.246Z,20.87
2019-05-30T16:39:20.394Z,20.76
2019-05-30T16:41:49.880Z,20.71
2019-05-30T16:44:22.546Z,20.48
2019-05-30T16:46:55.450Z,20.48
2019-05-30T16:49:27.318Z,20.56
2019-05-30T16:51:59.117Z,20.51
2019-05-30T16:54:28.451Z,20.46
2019-05-30T16:57:00.103Z,20.41
2019-05-30T16:59:30.984Z,20.41
2019-05-30T17:02:00.287Z,20.35
2019-05-30T17:04:31.018Z,20.35
2019-05-30T17:07:00.642Z,20.34
2019-05-30T17:09:31.188Z,20.22
2019-05-30T17:12:01.758Z,20.33
2019-05-30T17:14:34.715Z,20.31
2019-05-30T17:17:06.009Z,20.31
2019-05-30T17:19:39.384Z,20.25
2019-05-30T17:22:08.663Z,20.18
2019-05-30T17:24:38.153Z,20.13
2019-05-30T17:27:08.716Z,20.06
2019-05-30T17:29:39.977Z,20.04
2019-05-30T17:32:12.414Z,19.97
2019-05-30T17:34:42.986Z,19.92
2019-05-30T17:37:11.806Z,19.95
2019-05-30T17:39:42.536Z,19.89
2019-05-30T17:42:12.937Z,19.87
2019-05-30T17:44:43.251Z,19.81
2019-05-30T17:47:13.644Z,19.74
2019-05-30T17:49:44.152Z,19.68
2019-05-30T17:52:16.352Z,19.64
2019-05-30T17:54:48.231Z,19.57
2019-05-30T17:57:19.933Z,19.51
2019-05-30T17:59:49.123Z,19.39
2019-05-30T18:02:20.306Z,19.27
2019-05-30T18:04:49.669Z,19.18
2019-05-30T18:07:20.792Z,19.09
2019-05-30T18:09:51.410Z,19.03
2019-05-30T18:12:22.973Z,18.95
2019-05-30T18:14:51.808Z,18.92
2019-05-30T18:17:23.116Z,18.80
2019-05-30T18:19:55.412Z,18.71
2019-05-30T18:22:27.855Z,18.62
2019-05-30T18:24:57.185Z,18.52
2019-05-30T18:27:28.056Z,18.42
2019-05-30T18:29:59.760Z,18.33
2019-05-30T18:32:30.346Z,18.26
2019-05-30T18:35:00.863Z,18.17
2019-05-30T18:37:32.552Z,18.09
2019-05-30T18:40:03.664Z,18.03
2019-05-30T18:42:35.938Z,17.96
2019-05-30T18:45:08.246Z,17.87
2019-05-30T18:47:38.627Z,17.78
2019-05-30T18:50:09.731Z,17.68
2019-05-30T18:52:41.736Z,17.60
2019-05-30T18:55:12.246Z,17.51
2019-05-30T18:57:41.609Z,17.43
2019-05-30T19:00:16.590Z,17.37
2019-05-30T19:02:49.241Z,17.30
2019-05-30T19:05:19.619Z,17.21
2019-05-30T19:07:50.451Z,17.12
2019-05-30T19:10:23.776Z,17.02
2019-05-30T19:12:53.358Z,16.95
2019-05-30T19:15:29.353Z,16.92
2019-05-30T19:17:57.595Z,16.86
2019-05-30T19:20:31.818Z,16.84
2019-05-30T19:23:01.555Z,16.78
2019-05-30T19:25:32.428Z,16.67
2019-05-30T19:28:03.188Z,16.65
2019-05-30T19:30:35.091Z,16.65
2019-05-30T19:33:05.577Z,16.69
2019-05-30T19:35:40.250Z,16.72
2019-05-30T19:38:12.269Z,16.75
2019-05-30T19:40:42.988Z,16.73
2019-05-30T19:43:11.547Z,16.67
2019-05-30T19:45:40.013Z,16.63
2019-05-30T19:48:10.416Z,16.60
2019-05-30T19:50:38.939Z,16.58
2019-05-30T19:53:07.492Z,16.55
2019-05-30T19:55:37.971Z,16.51
2019-05-30T19:58:08.679Z,16.52
2019-05-30T20:00:57.007Z,16.50
2019-05-30T20:03:11.057Z,16.53
2019-05-30T20:05:43.447Z,16.57
2019-05-30T20:08:13.404Z,16.66
2019-05-30T20:10:43.839Z,16.71
2019-05-30T20:13:14.532Z,16.69
2019-05-30T20:15:44.234Z,16.66
2019-05-30T20:18:13.643Z,16.62
2019-05-30T20:20:56.379Z,16.59
2019-05-30T20:23:20.534Z,16.51
2019-05-30T20:25:49.983Z,16.42
2019-05-30T20:28:19.287Z,16.36
2019-05-30T20:30:48.803Z,16.34
2019-05-30T20:33:19.159Z,16.33
2019-05-30T20:35:48.667Z,16.32
2019-05-30T20:38:20.819Z,16.29
2019-05-30T20:40:50.323Z,16.24
2019-05-30T20:43:24.256Z,16.21
2019-05-30T20:45:55.408Z,16.16
2019-05-30T20:48:25.811Z,16.09
2019-05-30T20:50:57.712Z,16.06
2019-05-30T20:53:28.054Z,16.07
2019-05-30T20:55:58.666Z,16.02
2019-05-30T20:58:30.040Z,15.97
2019-05-30T21:01:03.527Z,15.89
2019-05-30T21:03:33.596Z,15.80
2019-05-30T21:06:04.367Z,15.72
2019-05-30T21:08:35.077Z,15.53
2019-05-30T21:11:07.270Z,15.39
2019-05-30T21:13:38.246Z,15.33
2019-05-30T21:16:10.377Z,15.39
2019-05-30T21:18:42.037Z,15.52
2019-05-30T21:21:20.261Z,15.67
2019-05-30T21:23:50.814Z,15.80
2019-05-30T21:26:21.074Z,15.84
2019-05-30T21:28:50.369Z,15.87
2019-05-30T21:31:21.108Z,15.81
2019-05-30T21:33:51.986Z,15.80
2019-05-30T21:36:21.814Z,15.79
2019-05-30T21:38:51.124Z,15.77
2019-05-30T21:41:21.522Z,15.83
2019-05-30T21:43:52.039Z,15.85
2019-05-30T21:46:21.745Z,15.93
2019-05-30T21:48:52.893Z,15.97
2019-05-30T21:51:22.325Z,15.97
2019-05-30T21:53:54.071Z,15.91
2019-05-30T21:56:24.376Z,15.92
2019-05-30T21:58:55.798Z,15.92
2019-05-30T22:01:30.862Z,15.90
2019-05-30T22:04:00.440Z,15.88
2019-05-30T22:06:31.013Z,15.89
2019-05-30T22:09:03.552Z,15.88
2019-05-30T22:11:32.978Z,15.81
2019-05-30T22:14:02.236Z,15.76
2019-05-30T22:16:31.957Z,15.79
2019-05-30T22:19:04.603Z,15.81
2019-05-30T22:21:35.133Z,15.80
2019-05-30T22:24:05.521Z,15.78
2019-05-30T22:26:37.598Z,15.76
2019-05-30T22:29:08.329Z,15.76
2019-05-30T22:31:39.976Z,15.78
2019-05-30T22:34:11.435Z,15.78
2019-05-30T22:36:43.019Z,15.79
2019-05-30T22:39:12.387Z,15.83
2019-05-30T22:41:43.825Z,15.85
2019-05-30T22:44:15.323Z,15.86
2019-05-30T22:46:46.197Z,15.83
2019-05-30T22:49:18.505Z,15.77
2019-05-30T22:51:49.043Z,15.76
2019-05-30T22:54:17.534Z,15.77
2019-05-30T22:56:49.667Z,15.76
2019-05-30T22:59:20.187Z,15.78
2019-05-30T23:01:52.022Z,15.79
2019-05-30T23:04:21.829Z,15.75
2019-05-30T23:06:54.541Z,15.76
2019-05-30T23:09:25.527Z,15.78
2019-05-30T23:11:57.115Z,15.77
2019-05-30T23:14:29.212Z,15.77
2019-05-30T23:16:59.598Z,15.80
2019-05-30T23:19:30.108Z,15.82
2019-05-30T23:22:01.041Z,15.81
2019-05-30T23:24:30.546Z,15.82
2019-05-30T23:27:00.870Z,15.79
2019-05-30T23:29:31.320Z,15.79
2019-05-30T23:32:03.286Z,15.80
2019-05-30T23:34:33.693Z,15.80
2019-05-30T23:37:03.693Z,15.82
2019-05-30T23:39:33.046Z,15.81
2019-05-30T23:42:03.443Z,15.82
2019-05-30T23:44:32.949Z,15.81
2019-05-30T23:47:03.433Z,15.80
2019-05-30T23:49:33.723Z,15.79
2019-05-30T23:52:02.665Z,15.81
2019-05-30T23:54:31.939Z,15.73
2019-05-30T23:57:02.332Z,15.71
2019-05-30T23:59:31.737Z,15.72
